Time;durP1;ratioP1;P1;durP2;ratioP2;P2;SDS_P1;SDS_P2;PMS_P1;PMS_P2;Temp;Humidity;BMP_temperature;BMP_pressure;BME280_temperature;BME280_humidity;BME280_pressure;Samples;Min_cycle;Max_cycle;Signal;HPM_P1;HPM_P2
2022/01/06 00:00:39;;;;;;;23.30;4.70;;;;;;;3.84;88.89;101375.03;7390450;19;20006;-65
2022/01/06 00:03:08;;;;;;;20.85;4.65;;;;;;;3.87;89.12;101381.06;7390158;19;20519;-65
2022/01/06 00:05:36;;;;;;;27.52;5.63;;;;;;;3.85;88.85;101375.00;7388967;19;20015;-65
2022/01/06 00:08:08;;;;;;;19.65;5.20;;;;;;;3.84;89.07;101385.41;7386811;19;20017;-65
2022/01/06 00:10:37;;;;;;;27.25;5.38;;;;;;;3.81;89.41;101387.16;7389111;19;20010;-66
2022/01/06 00:13:13;;;;;;;19.85;4.57;;;;;;;3.76;89.15;101382.88;7388950;19;20476;-65
2022/01/06 00:15:58;;;;;;;21.05;4.70;;;;;;;3.70;89.28;101382.91;7388753;19;20052;-68
2022/01/06 00:18:40;;;;;;;21.15;4.47;;;;;;;3.70;89.34;101378.59;7389544;19;20508;-65
2022/01/06 00:23:53;;;;;;;25.95;4.95;;;;;;;3.75;89.29;101389.75;7389809;19;20023;-65
2022/01/06 00:26:21;;;;;;;20.08;4.93;;;;;;;3.78;89.23;101394.94;7387407;19;20464;-66
2022/01/06 00:28:50;;;;;;;21.45;4.70;;;;;;;3.84;88.91;101390.56;7388046;19;20341;-65
2022/01/06 00:31:19;;;;;;;24.52;4.13;;;;;;;3.87;89.47;101395.72;7389025;19;20014;-66
2022/01/06 00:33:48;;;;;;;20.27;4.35;;;;;;;3.88;89.04;101397.47;7389489;19;20007;-65
2022/01/06 00:36:17;;;;;;;22.88;4.40;;;;;;;3.90;88.92;101399.19;7386121;19;20018;-65
2022/01/06 00:38:45;;;;;;;17.20;4.38;;;;;;;3.93;88.82;101393.97;7387955;19;20014;-65
2022/01/06 00:41:17;;;;;;;18.58;4.57;;;;;;;3.93;88.55;101386.19;7389091;19;20088;-65
2022/01/06 00:43:46;;;;;;;21.05;5.03;;;;;;;3.95;88.80;101397.44;7389325;19;20492;-64
2022/01/06 00:46:15;;;;;;;19.75;4.38;;;;;;;3.97;88.37;101390.50;7385808;19;20130;-65
2022/01/06 00:48:43;;;;;;;21.77;4.95;;;;;;;3.99;88.28;101401.69;7387778;19;20018;-66
2022/01/06 00:51:12;;;;;;;22.73;5.22;;;;;;;4.01;88.95;101398.22;7388736;19;20348;-65
2022/01/06 00:53:41;;;;;;;22.75;4.60;;;;;;;3.99;89.07;101398.25;7387542;19;20024;-65
2022/01/06 00:56:10;;;;;;;18.73;4.47;;;;;;;3.93;88.64;101396.56;7385441;19;20018;-65
2022/01/06 00:58:41;;;;;;;23.42;4.20;;;;;;;3.93;88.62;101388.78;7394888;19;20011;-65
2022/01/06 01:01:10;;;;;;;20.45;4.20;;;;;;;3.93;88.61;101396.56;7396118;19;20014;-65
2022/01/06 01:03:39;;;;;;;23.90;4.18;;;;;;;3.89;88.61;101394.84;7396703;19;20006;-65
2022/01/06 01:06:08;;;;;;;20.63;4.07;;;;;;;3.83;88.06;101399.25;7394451;19;20452;-65
2022/01/06 01:08:38;;;;;;;22.10;3.97;;;;;;;3.80;88.41;101400.13;7394924;19;20013;-65
2022/01/06 01:11:07;;;;;;;21.63;4.05;;;;;;;3.83;88.37;101401.84;7396656;19;20475;-65
2022/01/06 01:13:43;;;;;;;20.23;3.88;;;;;;;3.87;88.62;101407.00;7394894;19;20369;-66
2022/01/06 01:16:24;;;;;;;18.15;4.30;;;;;;;3.83;87.51;101401.84;7393454;19;20033;-65
2022/01/06 01:18:56;;;;;;;20.85;3.53;;;;;;;3.79;86.64;101411.34;7396796;19;20021;-65
2022/01/06 01:21:27;;;;;;;26.30;4.55;;;;;;;3.74;85.97;101403.63;7393948;19;20037;-64
2022/01/06 01:23:56;;;;;;;20.27;4.22;;;;;;;3.69;86.20;101407.09;7395265;19;20018;-64
2022/01/06 01:26:26;;;;;;;19.20;3.70;;;;;;;3.68;85.84;101406.22;7393294;19;20007;-65
2022/01/06 01:28:55;;;;;;;18.63;4.00;;;;;;;3.72;86.66;101412.25;7393405;19;20013;-65
2022/01/06 01:31:35;;;;;;;17.88;4.00;;;;;;;3.71;86.28;101416.59;7395103;19;20331;-64
2022/01/06 01:34:09;;;;;;;19.55;3.67;;;;;;;3.68;86.35;101419.19;7394720;19;20021;-65
2022/01/06 01:36:38;;;;;;;20.17;3.97;;;;;;;3.66;86.22;101426.13;7391359;19;20041;-64
2022/01/06 01:39:07;;;;;;;21.35;3.28;;;;;;;3.57;85.15;101428.78;7394835;19;20523;-65
2022/01/06 01:41:36;;;;;;;23.25;3.70;;;;;;;3.54;86.11;101426.19;7391418;19;20335;-65
2022/01/06 01:44:11;;;;;;;23.65;4.05;;;;;;;3.54;86.26;101436.53;7394542;19;20543;-65
2022/01/06 01:46:51;;;;;;;20.58;3.83;;;;;;;3.47;85.35;101436.59;7390713;19;20040;-65
2022/01/06 01:49:32;;;;;;;17.85;3.35;;;;;;;3.49;85.91;101446.94;7394470;19;20034;-65
2022/01/06 01:52:00;;;;;;;18.92;3.72;;;;;;;3.44;85.67;101449.56;7394348;19;20042;-65
2022/01/06 01:54:29;;;;;;;17.98;3.30;;;;;;;3.57;86.57;101457.28;7394603;19;20025;-66
2022/01/06 01:56:58;;;;;;;17.70;3.28;;;;;;;3.57;84.92;101467.66;7391421;19;20026;-66
2022/01/06 01:59:27;;;;;;;19.67;3.55;;;;;;;3.49;84.83;101478.03;7394442;19;20018;-66
2022/01/06 02:01:58;;;;;;;15.88;3.25;;;;;;;3.51;86.64;101473.72;7394350;19;20014;-64
2022/01/06 02:04:27;;;;;;;23.30;3.53;;;;;;;3.49;85.72;101479.78;7390814;19;20118;-65
2022/01/06 02:06:56;;;;;;;20.05;3.53;;;;;;;3.49;86.22;101483.22;7391046;19;20034;-64
2022/01/06 02:09:25;;;;;;;17.42;3.47;;;;;;;3.44;85.23;101482.38;7389897;19;20017;-64
2022/01/06 02:11:54;;;;;;;15.93;3.28;;;;;;;3.44;85.94;101478.06;7395444;19;20055;-65
2022/01/06 02:14:23;;;;;;;20.58;3.83;;;;;;;3.39;85.29;101487.56;7393711;19;20015;-65
2022/01/06 02:16:53;;;;;;;16.17;3.50;;;;;;;3.37;85.97;101484.13;7390482;19;20006;-65
2022/01/06 02:19:25;;;;;;;18.67;3.15;;;;;;;3.33;84.84;101485.00;7393358;19;20030;-66
2022/01/06 02:21:56;;;;;;;18.58;4.00;;;;;;;3.32;85.54;101488.44;7392818;19;20413;-66
2022/01/06 02:24:25;;;;;;;18.73;3.40;;;;;;;3.35;85.84;101495.34;7390937;19;20011;-70
2022/01/06 02:26:54;;;;;;;21.98;3.85;;;;;;;3.41;86.33;101490.13;7390427;19;20468;-67
2022/01/06 02:29:22;;;;;;;15.63;3.17;;;;;;;3.46;87.30;101494.44;7390830;19;20014;-66
2022/01/06 02:31:51;;;;;;;14.32;3.22;;;;;;;3.55;87.50;101497.88;7393582;19;20015;-66
2022/01/06 02:34:20;;;;;;;21.25;3.33;;;;;;;3.59;87.07;101495.25;7392843;19;20025;-66
2022/01/06 02:36:49;;;;;;;18.20;3.40;;;;;;;3.57;86.72;101491.81;7390744;19;20036;-66
2022/01/06 02:39:20;;;;;;;19.05;3.40;;;;;;;3.55;86.23;101496.13;7394045;19;20070;-66
2022/01/06 02:41:49;;;;;;;16.85;3.20;;;;;;;3.58;86.37;101492.66;7393286;19;20482;-65
2022/01/06 02:44:23;;;;;;;16.85;3.58;;;;;;;3.57;85.26;101486.63;7392659;19;20021;-67
2022/01/06 02:46:52;;;;;;;23.33;3.70;;;;;;;3.50;85.04;101494.47;7389989;19;20444;-65
2022/01/06 02:49:22;;;;;;;14.90;3.53;;;;;;;3.44;85.06;101490.16;7391010;19;20333;-65
2022/01/06 02:51:51;;;;;;;23.25;3.40;;;;;;;3.43;85.21;101496.19;7392910;19;20086;-65
2022/01/06 02:54:23;;;;;;;20.48;3.70;;;;;;;3.43;85.14;101507.41;7392859;19;20479;-64
2022/01/06 02:56:52;;;;;;;15.48;3.55;;;;;;;3.42;85.21;101515.19;7389707;19;20010;-66
2022/01/06 02:59:21;;;;;;;15.75;2.97;;;;;;;3.42;85.41;101505.69;7392810;19;20031;-65
2022/01/06 03:01:50;;;;;;;22.70;3.45;;;;;;;3.43;85.14;101496.19;7392467;19;20010;-66
2022/01/06 03:04:20;;;;;;;15.18;2.72;;;;;;;3.46;85.53;101506.53;7391678;19;20022;-63
2022/01/06 03:06:49;;;;;;;18.75;3.28;;;;;;;3.52;85.97;101500.47;7388954;19;20025;-65
2022/01/06 03:09:25;;;;;;;11.60;3.10;;;;;;;3.47;85.64;101497.91;7390195;19;20082;-66
2022/01/06 03:11:56;;;;;;;20.00;3.45;;;;;;;3.46;85.33;101504.81;7392417;19;20022;-65
2022/01/06 03:14:25;;;;;;;11.75;2.47;;;;;;;3.41;84.80;101508.28;7392577;19;20019;-64
2022/01/06 03:16:54;;;;;;;22.20;3.35;;;;;;;3.33;84.37;101503.13;7388599;19;20037;-66
2022/01/06 03:19:22;;;;;;;17.65;3.55;;;;;;;3.28;84.63;101510.94;7388949;19;20013;-65
2022/01/06 03:21:51;;;;;;;16.30;3.72;;;;;;;3.27;84.83;101514.38;7390811;19;20016;-65
2022/01/06 03:24:20;;;;;;;20.67;4.03;;;;;;;3.26;85.84;101515.22;7391008;19;20014;-67
2022/01/06 03:26:49;;;;;;;20.15;3.28;;;;;;;3.33;85.85;101523.84;7388129;19;20021;-64
2022/01/06 03:29:20;;;;;;;12.40;2.70;;;;;;;3.35;85.96;101516.06;7389647;19;20418;-67
2022/01/06 03:31:49;;;;;;;14.45;2.63;;;;;;;3.32;85.42;101523.88;7391491;19;20353;-64
2022/01/06 03:34:18;;;;;;;16.63;3.67;;;;;;;3.25;84.46;101516.13;7391920;19;20014;-67
2022/01/06 03:36:47;;;;;;;21.63;3.38;;;;;;;3.20;84.57;101528.22;7389260;19;20014;-64
2022/01/06 03:39:16;;;;;;;15.80;3.22;;;;;;;3.20;85.51;101530.78;7390537;19;20010;-63
2022/01/06 03:41:44;;;;;;;18.83;2.95;;;;;;;3.18;84.42;101535.13;7389861;19;20014;-63
2022/01/06 03:44:13;;;;;;;15.93;2.80;;;;;;;3.18;85.31;101532.53;7390523;19;20014;-67
2022/01/06 03:46:45;;;;;;;22.80;3.55;;;;;;;3.25;85.76;101530.78;7388006;19;20020;-64
2022/01/06 03:49:13;;;;;;;19.70;3.47;;;;;;;3.24;85.08;101535.09;7391054;19;20014;-64
2022/01/06 03:51:42;;;;;;;17.48;3.17;;;;;;;3.22;83.94;101533.38;7390217;19;20006;-64
2022/01/06 03:54:11;;;;;;;12.98;3.03;;;;;;;3.17;84.62;101535.13;7390629;19;20010;-63
2022/01/06 03:56:40;;;;;;;17.00;2.97;;;;;;;3.17;84.82;101527.38;7388363;19;20014;-63
2022/01/06 03:59:09;;;;;;;25.05;3.45;;;;;;;3.24;85.74;101537.69;7390428;19;20061;-65
2022/01/06 04:01:38;;;;;;;22.92;3.55;;;;;;;3.29;85.10;101527.31;7390848;19;20015;-63
2022/01/06 04:04:09;;;;;;;16.20;3.35;;;;;;;3.27;84.49;101547.19;7390495;19;20924;-66
2022/01/06 04:06:38;;;;;;;18.63;3.85;;;;;;;3.24;84.69;101542.03;7387619;19;20317;-65
2022/01/06 04:09:07;;;;;;;19.92;3.22;;;;;;;3.30;84.96;101544.59;7387646;19;20041;-67
2022/01/06 04:11:36;;;;;;;14.88;3.10;;;;;;;3.32;84.48;101547.19;7390220;19;20024;-65
2022/01/06 04:14:05;;;;;;;19.65;3.85;;;;;;;3.34;84.40;101558.38;7390255;19;20020;-66
2022/01/06 04:16:36;;;;;;;19.17;3.38;;;;;;;3.32;83.39;101558.38;7388129;19;20339;-65
2022/01/06 04:19:05;;;;;;;20.17;3.85;;;;;;;3.27;83.84;101558.41;7390703;19;20041;-65
2022/01/06 04:21:37;;;;;;;15.73;3.10;;;;;;;3.32;83.62;101555.78;7389718;19;20019;-65
2022/01/06 04:24:06;;;;;;;16.88;2.72;;;;;;;3.23;83.03;101563.59;7389993;19;20019;-67
2022/01/06 04:26:35;;;;;;;16.70;2.88;;;;;;;3.19;83.42;101565.31;7387550;19;20019;-66
2022/01/06 04:29:04;;;;;;;15.48;3.10;;;;;;;3.14;82.96;101563.59;7388382;19;20090;-66
2022/01/06 04:31:33;;;;;;;16.13;2.70;;;;;;;3.09;83.65;101568.78;7387708;19;20038;-65
2022/01/06 04:34:01;;;;;;;19.27;3.33;;;;;;;3.09;83.56;101568.78;7388730;19;20015;-64
2022/01/06 04:36:30;;;;;;;16.73;3.35;;;;;;;3.04;83.43;101575.72;7386745;19;20021;-65
2022/01/06 04:39:02;;;;;;;16.65;3.40;;;;;;;3.01;83.72;101583.47;7386778;19;20389;-64
2022/01/06 04:41:31;;;;;;;18.20;2.92;;;;;;;3.02;84.58;101586.03;7388712;19;20102;-64
2022/01/06 04:44:00;;;;;;;15.35;3.22;;;;;;;3.06;84.72;101584.34;7389251;19;20087;-64
2022/01/06 04:46:28;;;;;;;18.40;3.47;;;;;;;3.10;84.74;101575.69;7386272;19;20010;-65
2022/01/06 04:48:57;;;;;;;14.55;3.05;;;;;;;3.08;84.60;101587.78;7387332;19;20014;-64
2022/01/06 04:51:26;;;;;;;17.38;3.10;;;;;;;3.14;84.89;101592.97;7388993;19;20010;-62
2022/01/06 04:53:55;;;;;;;16.08;4.18;;;;;;;3.15;83.67;101596.41;7389030;19;20018;-65
2022/01/06 04:56:26;;;;;;;23.90;3.15;;;;;;;2.96;83.09;101599.00;7386830;19;20015;-64
2022/01/06 04:58:55;;;;;;;15.65;3.17;;;;;;;2.87;83.91;101596.44;7388303;19;20090;-65
2022/01/06 05:01:24;;;;;;;19.63;2.80;;;;;;;2.84;83.82;101604.19;7388157;19;20025;-64
2022/01/06 05:03:53;;;;;;;17.77;3.25;;;;;;;2.77;84.52;101599.00;7388131;19;20045;-64
2022/01/06 05:06:21;;;;;;;17.98;2.40;;;;;;;2.77;84.64;101606.75;7385873;19;20185;-64
2022/01/06 05:08:50;;;;;;;10.38;2.45;;;;;;;2.77;84.83;101608.50;7387796;19;20014;-65
2022/01/06 05:11:19;;;;;;;15.10;3.50;;;;;;;2.83;85.07;101612.81;7389202;19;20025;-62
2022/01/06 05:13:53;;;;;;;12.95;2.80;;;;;;;2.88;85.18;101616.25;7388857;19;20028;-63
2022/01/06 05:16:21;;;;;;;18.20;3.22;;;;;;;2.92;85.02;101623.16;7386978;19;20107;-65
2022/01/06 05:18:50;;;;;;;26.00;2.92;;;;;;;2.98;85.34;101622.31;7388715;19;20018;-61
2022/01/06 05:21:19;;;;;;;14.93;3.15;;;;;;;2.99;85.08;101637.84;7388050;19;20033;-64
2022/01/06 05:23:49;;;;;;;16.85;3.38;;;;;;;3.02;85.69;101634.38;7387298;19;20445;-64
2022/01/06 05:26:18;;;;;;;15.00;2.85;;;;;;;3.05;85.79;101637.84;7386263;19;20025;-66
2022/01/06 05:28:47;;;;;;;16.17;3.00;;;;;;;3.07;86.16;101633.53;7387763;19;20048;-64
2022/01/06 05:31:19;;;;;;;21.33;3.25;;;;;;;3.05;85.99;101636.97;7387340;19;20106;-65
2022/01/06 05:33:47;;;;;;;17.67;3.00;;;;;;;3.03;86.23;101636.97;7387963;19;20752;-64
2022/01/06 05:36:16;;;;;;;22.35;3.17;;;;;;;3.00;85.84;101639.56;7385578;19;20815;-65
2022/01/06 05:38:45;;;;;;;19.23;3.00;;;;;;;2.99;85.78;101643.00;7387670;19;20015;-65
2022/01/06 05:41:14;;;;;;;13.80;3.17;;;;;;;2.91;85.31;101642.16;7387723;19;20024;-64
2022/01/06 05:43:43;;;;;;;13.10;2.95;;;;;;;2.92;86.10;101638.69;7391961;19;20014;-65
2022/01/06 05:46:12;;;;;;;21.63;3.72;;;;;;;2.91;85.94;101642.16;7392434;19;20064;-65
2022/01/06 05:48:43;;;;;;;18.70;3.50;;;;;;;2.87;85.70;101636.09;7394012;19;20023;-64
2022/01/06 05:51:12;;;;;;;16.52;3.30;;;;;;;2.88;86.09;101647.31;7394319;19;20758;-64
2022/01/06 05:53:41;;;;;;;14.73;3.20;;;;;;;2.89;86.33;101651.63;7394800;19;20025;-65
2022/01/06 05:56:10;;;;;;;16.92;3.50;;;;;;;2.83;85.99;101651.63;7390792;19;20475;-64
2022/01/06 05:58:40;;;;;;;13.77;2.95;;;;;;;2.81;86.18;101645.56;7394053;19;20020;-65
2022/01/06 06:01:09;;;;;;;11.85;2.92;;;;;;;2.82;86.33;101658.53;7396339;19;20045;-65
2022/01/06 06:03:38;;;;;;;11.93;2.90;;;;;;;2.85;86.39;101666.31;7395889;19;20011;-65
2022/01/06 06:06:09;;;;;;;17.10;3.50;;;;;;;2.91;86.43;101661.13;7392301;19;20539;-62
2022/01/06 06:08:38;;;;;;;15.52;3.13;;;;;;;2.92;86.29;101664.59;7393845;19;20010;-65
2022/01/06 06:11:07;;;;;;;16.70;3.40;;;;;;;2.99;86.60;101675.81;7394017;19;20022;-65
2022/01/06 06:13:36;;;;;;;16.77;3.58;;;;;;;3.01;86.52;101676.66;7393689;19;20022;-64
2022/01/06 06:16:05;;;;;;;14.55;3.03;;;;;;;3.05;86.57;101679.28;7391872;19;20053;-63
2022/01/06 06:18:34;;;;;;;16.95;3.80;;;;;;;3.10;86.28;101680.13;7393944;19;20498;-64
2022/01/06 06:21:03;;;;;;;19.13;3.75;;;;;;;3.10;86.08;101681.88;7392852;19;20018;-64
2022/01/06 06:23:34;;;;;;;18.42;3.30;;;;;;;3.09;85.93;101683.56;7393039;19;20014;-64
2022/01/06 06:26:03;;;;;;;20.00;3.33;;;;;;;3.12;86.18;101687.91;7390881;19;20018;-65
2022/01/06 06:28:32;;;;;;;18.60;5.47;;;;;;;3.11;86.11;101691.38;7393222;19;20416;-65
2022/01/06 06:31:01;;;;;;;16.67;4.22;;;;;;;3.08;85.60;101700.00;7393187;19;20010;-66
2022/01/06 06:33:30;;;;;;;17.40;3.63;;;;;;;2.97;84.97;101701.72;7393159;19;20333;-64
2022/01/06 06:35:59;;;;;;;13.65;3.22;;;;;;;2.89;85.22;101706.84;7389960;19;20015;-64
2022/01/06 06:38:28;;;;;;;18.08;3.08;;;;;;;2.82;85.95;101707.69;7391275;19;20025;-64
2022/01/06 06:40:59;;;;;;;14.63;3.47;;;;;;;2.78;86.21;101711.16;7391878;19;20017;-64
2022/01/06 06:43:28;;;;;;;17.55;3.47;;;;;;;2.72;86.52;101711.13;7390474;19;20021;-64
2022/01/06 06:45:57;;;;;;;16.85;4.05;;;;;;;2.67;86.76;101703.38;7390131;19;20369;-63
2022/01/06 06:48:26;;;;;;;12.32;3.33;;;;;;;2.62;87.04;101705.06;7392575;19;20014;-65
2022/01/06 06:50:55;;;;;;;19.35;4.00;;;;;;;2.62;87.33;101720.59;7390778;19;20029;-65
2022/01/06 06:53:24;;;;;;;18.40;4.03;;;;;;;2.67;87.25;101726.66;7390979;19;20513;-65
2022/01/06 06:55:53;;;;;;;18.13;4.28;;;;;;;2.65;87.25;101725.78;7390260;19;20028;-63
2022/01/06 06:58:24;;;;;;;25.15;7.18;;;;;;;2.65;87.00;101730.97;7391656;19;20023;-63
2022/01/06 07:00:53;;;;;;;15.10;3.53;;;;;;;2.67;87.10;101730.97;7392027;19;20099;-63
2022/01/06 07:03:22;;;;;;;17.00;3.88;;;;;;;2.64;87.29;101730.97;7398213;19;20014;-64
2022/01/06 07:05:51;;;;;;;14.75;3.25;;;;;;;2.60;87.33;101735.25;7391431;19;20021;-64
2022/01/06 07:08:19;;;;;;;14.95;3.78;;;;;;;2.60;87.33;101732.66;7393491;19;20007;-65
2022/01/06 07:10:48;;;;;;;15.80;3.65;;;;;;;2.59;87.40;101733.50;7391704;19;20115;-65
2022/01/06 07:13:18;;;;;;;20.20;3.95;;;;;;;2.57;87.01;101743.88;7393385;19;20070;-65
2022/01/06 07:15:50;;;;;;;17.92;3.78;;;;;;;2.54;87.09;101743.84;7391745;19;20051;-65
2022/01/06 07:18:20;;;;;;;25.73;4.88;;;;;;;2.52;87.41;101750.75;7393310;19;20007;-64
2022/01/06 07:20:49;;;;;;;20.33;4.20;;;;;;;2.47;87.31;101751.59;7393397;19;20026;-65
2022/01/06 07:23:18;;;;;;;14.32;4.43;;;;;;;2.45;87.75;101758.47;7393104;19;20025;-65
2022/01/06 07:25:47;;;;;;;13.30;4.05;;;;;;;2.50;88.18;101752.47;7391031;19;20074;-66
2022/01/06 07:28:15;;;;;;;19.02;4.32;;;;;;;2.55;88.23;101761.13;7391073;19;20028;-66
2022/01/06 07:30:44;;;;;;;17.25;4.55;;;;;;;2.60;88.28;101768.88;7391938;19;20025;-63
2022/01/06 07:33:16;;;;;;;15.40;4.20;;;;;;;2.62;88.46;101771.47;7392103;19;20006;-64
2022/01/06 07:35:45;;;;;;;18.30;4.50;;;;;;;2.62;88.55;101767.16;7391639;19;20090;-66
2022/01/06 07:38:14;;;;;;;23.63;5.53;;;;;;;2.64;88.01;101777.53;7392159;19;20014;-66
2022/01/06 07:40:42;;;;;;;17.52;3.63;;;;;;;2.62;87.96;101776.66;7391689;19;20017;-66
2022/01/06 07:43:11;;;;;;;18.13;4.25;;;;;;;2.68;88.12;101787.03;7391593;19;20011;-64
2022/01/06 07:45:40;;;;;;;12.50;4.15;;;;;;;2.66;87.89;101787.00;7391859;19;20018;-65
2022/01/06 07:48:16;;;;;;;15.85;4.20;;;;;;;2.66;88.19;101784.44;7393603;19;20360;-63
2022/01/06 07:50:49;;;;;;;20.55;4.40;;;;;;;2.69;88.32;101781.00;7391176;19;20013;-64
2022/01/06 07:53:18;;;;;;;12.70;4.00;;;;;;;2.73;88.32;101781.00;7392192;19;20011;-61
2022/01/06 07:55:47;;;;;;;17.50;4.82;;;;;;;2.77;88.51;101781.91;7391882;19;20029;-62
2022/01/06 07:58:16;;;;;;;11.68;4.20;;;;;;;2.77;88.29;101795.69;7393845;19;20015;-64
2022/01/06 08:00:45;;;;;;;20.08;5.05;;;;;;;2.77;88.10;101793.09;7392611;19;20360;-62
2022/01/06 08:03:13;;;;;;;14.13;4.63;;;;;;;2.84;88.37;101799.19;7393773;19;20018;-64
2022/01/06 08:05:42;;;;;;;21.05;5.72;;;;;;;2.86;88.05;101797.44;7389649;19;20477;-66
2022/01/06 08:08:14;;;;;;;18.63;5.20;;;;;;;2.80;87.58;101801.75;7392596;19;20033;-63
2022/01/06 08:10:42;;;;;;;17.25;5.00;;;;;;;2.74;87.48;101794.84;7390629;19;20025;-64
2022/01/06 08:13:11;;;;;;;17.67;5.63;;;;;;;2.72;87.48;101799.13;7393753;19;20010;-61
2022/01/06 08:15:40;;;;;;;14.50;4.85;;;;;;;2.69;87.52;101802.56;7392844;19;20029;-62
2022/01/06 08:18:09;;;;;;;18.52;4.80;;;;;;;2.72;87.91;101800.00;7392590;19;20021;-66
2022/01/06 08:20:38;;;;;;;18.08;4.80;;;;;;;2.73;87.90;101804.28;7392114;19;20018;-66
2022/01/06 08:23:07;;;;;;;16.52;5.07;;;;;;;2.77;88.17;101803.47;7393623;19;20019;-64
2022/01/06 08:25:39;;;;;;;18.05;4.32;;;;;;;2.80;88.08;101799.16;7393087;19;20029;-63
2022/01/06 08:28:08;;;;;;;15.85;4.82;;;;;;;2.82;87.95;101800.03;7391712;19;20010;-64
2022/01/06 08:30:37;;;;;;;20.23;5.57;;;;;;;2.86;87.90;101801.78;7390171;19;20098;-60
2022/01/06 08:33:06;;;;;;;20.05;5.25;;;;;;;2.90;87.75;101803.50;7390025;19;20039;-64
2022/01/06 08:35:36;;;;;;;18.15;5.28;;;;;;;2.90;87.49;101806.09;7391177;19;20020;-65
2022/01/06 08:38:04;;;;;;;18.98;5.03;;;;;;;2.91;87.23;101805.25;7390701;19;20043;-63
2022/01/06 08:40:34;;;;;;;20.17;6.25;;;;;;;2.93;87.17;101808.69;7389191;19;20021;-64
2022/01/06 08:43:06;;;;;;;19.88;5.60;;;;;;;2.96;86.80;101811.28;7389784;19;20010;-64
2022/01/06 08:45:35;;;;;;;13.32;5.40;;;;;;;2.98;86.71;101811.28;7389804;19;20018;-64
2022/01/06 08:48:04;;;;;;;17.90;5.63;;;;;;;2.93;86.05;101822.50;7390850;19;20021;-64
2022/01/06 08:50:33;;;;;;;14.00;4.75;;;;;;;2.76;86.10;101825.00;7388541;19;20082;-64
2022/01/06 08:53:01;;;;;;;20.48;5.53;;;;;;;2.70;86.41;101826.72;7391557;19;20006;-65
2022/01/06 08:55:30;;;;;;;14.73;5.30;;;;;;;2.60;86.70;101831.00;7390495;19;20018;-66
2022/01/06 08:57:59;;;;;;;20.67;6.20;;;;;;;2.54;86.99;101829.22;7389731;19;20013;-65
2022/01/06 09:00:31;;;;;;;15.45;5.22;;;;;;;2.48;87.25;101838.66;7389012;19;20018;-65
2022/01/06 09:03:00;;;;;;;21.38;6.03;;;;;;;2.53;87.83;101835.25;7391819;19;20013;-65
2022/01/06 09:05:28;;;;;;;19.98;5.35;;;;;;;2.57;87.77;101844.78;7392883;19;20448;-65
2022/01/06 09:07:57;;;;;;;17.75;5.38;;;;;;;2.55;87.51;101841.31;7391532;19;20088;-65
2022/01/06 09:10:29;;;;;;;17.20;5.38;;;;;;;2.51;87.05;101851.66;7390862;19;20015;-65
2022/01/06 09:12:58;;;;;;;15.65;4.68;;;;;;;2.42;87.17;101844.66;7392824;19;20094;-64
2022/01/06 09:15:27;;;;;;;14.65;5.53;;;;;;;2.41;87.76;101845.56;7390551;19;20019;-65
2022/01/06 09:17:59;;;;;;;18.00;5.90;;;;;;;2.48;88.25;101842.16;7392900;19;20015;-64
2022/01/06 09:20:29;;;;;;;22.85;6.35;;;;;;;2.51;88.12;101844.75;7400013;19;20475;-64
2022/01/06 09:22:58;;;;;;;19.67;7.60;;;;;;;2.52;88.39;101843.91;7398741;19;20018;-63
2022/01/06 09:25:26;;;;;;;19.75;8.57;;;;;;;2.52;88.28;101853.34;7398235;19;20368;-64
2022/01/06 09:27:56;;;;;;;21.83;9.23;;;;;;;2.54;88.42;101854.25;7394619;19;20526;-64
2022/01/06 09:30:26;;;;;;;28.10;9.85;;;;;;;2.63;88.62;101849.09;7398234;19;20496;-63
2022/01/06 09:32:56;;;;;;;25.23;9.60;;;;;;;2.71;88.32;101844.84;7399390;19;20015;-64
2022/01/06 09:35:27;;;;;;;27.75;11.13;;;;;;;2.81;88.19;101852.63;7398368;19;20385;-65
2022/01/06 09:37:56;;;;;;;18.65;8.18;;;;;;;2.87;87.78;101863.03;7397359;19;20017;-63
2022/01/06 09:40:25;;;;;;;22.40;6.47;;;;;;;2.86;87.43;101854.38;7397211;19;20018;-64
2022/01/06 09:42:56;;;;;;;16.08;5.20;;;;;;;2.94;87.50;101857.03;7395177;19;20014;-65
2022/01/06 09:45:27;;;;;;;16.00;6.25;;;;;;;2.93;87.00;101861.31;7396564;19;20090;-64
2022/01/06 09:47:56;;;;;;;17.73;5.55;;;;;;;3.00;86.92;101864.81;7397598;19;20010;-64
2022/01/06 09:50:28;;;;;;;17.52;5.13;;;;;;;3.05;86.96;101870.00;7396311;19;20529;-64
2022/01/06 09:52:57;;;;;;;14.73;4.38;;;;;;;3.11;87.02;101867.47;7396111;19;20445;-65
2022/01/06 09:55:26;;;;;;;15.50;4.43;;;;;;;3.22;86.81;101876.09;7394174;19;20444;-64
2022/01/06 09:57:58;;;;;;;16.33;5.63;;;;;;;3.29;86.05;101882.19;7395388;19;20025;-64
2022/01/06 10:00:28;;;;;;;15.82;4.43;;;;;;;3.32;85.41;101876.16;7395927;19;20019;-65
2022/01/06 10:02:58;;;;;;;19.63;4.57;;;;;;;3.35;85.60;101873.56;7398370;19;20039;-64
2022/01/06 10:05:40;;;;;;;15.18;4.75;;;;;;;3.39;85.39;101870.97;7398136;19;20406;-64
2022/01/06 10:08:10;;;;;;;17.10;5.25;;;;;;;3.40;84.95;101875.31;7396759;19;20017;-64
2022/01/06 10:10:40;;;;;;;18.13;4.88;;;;;;;3.43;85.21;101877.91;7396796;19;20030;-63
2022/01/06 10:13:09;;;;;;;15.32;4.45;;;;;;;3.47;85.65;101874.47;7397067;19;20041;-64
2022/01/06 10:15:40;;;;;;;15.57;5.18;;;;;;;3.61;85.12;101869.31;7396354;19;20417;-63
2022/01/06 10:18:14;;;;;;;12.32;4.60;;;;;;;3.69;85.40;101865.88;7396769;19;20014;-64
2022/01/06 10:20:48;;;;;;;11.20;4.15;;;;;;;3.78;85.47;101863.25;7398023;19;20021;-64
2022/01/06 10:23:18;;;;;;;17.17;4.40;;;;;;;3.88;84.51;101858.97;7397513;19;20141;-64
2022/01/06 10:25:49;;;;;;;16.15;5.40;;;;;;;3.94;83.32;101865.03;7396019;19;20011;-64
2022/01/06 10:28:18;;;;;;;14.20;4.90;;;;;;;3.96;83.41;101862.41;7394094;19;20448;-65
2022/01/06 10:30:50;;;;;;;14.02;4.32;;;;;;;3.96;83.89;101860.69;7394107;19;20026;-64
2022/01/06 10:33:19;;;;;;;10.48;4.80;;;;;;;3.99;83.74;101846.84;7396485;19;20523;-65
2022/01/06 10:35:51;;;;;;;17.20;4.60;;;;;;;4.01;82.94;101850.31;7392678;19;20014;-65
2022/01/06 10:38:27;;;;;;;13.70;4.47;;;;;;;4.02;82.78;101848.59;7395580;19;20025;-66
2022/01/06 10:41:10;;;;;;;19.27;4.80;;;;;;;4.05;83.39;101843.41;7394736;19;20010;-65
2022/01/06 10:43:39;;;;;;;13.77;5.40;;;;;;;4.13;83.82;101844.25;7392476;19;20011;-64
2022/01/06 10:46:08;;;;;;;15.30;5.20;;;;;;;4.27;83.98;101844.22;7391222;19;20018;-64
2022/01/06 10:48:37;;;;;;;17.65;5.40;;;;;;;4.30;83.39;101836.47;7393151;19;20022;-67
2022/01/06 10:51:08;;;;;;;21.88;5.53;;;;;;;4.35;83.29;101833.84;7394559;19;20032;-64
2022/01/06 10:53:49;;;;;;;11.00;4.60;;;;;;;4.33;82.85;101845.09;7395496;19;20614;-65
2022/01/06 10:56:23;;;;;;;14.73;4.82;;;;;;;4.43;83.75;101839.91;7392437;19;20040;-63
2022/01/06 10:58:53;;;;;;;13.43;5.13;;;;;;;4.47;83.17;101841.59;7392799;19;20026;-64
2022/01/06 11:01:21;;;;;;;14.82;4.65;;;;;;;4.51;82.91;101840.72;7395342;19;20127;-64
2022/01/06 11:03:50;;;;;;;14.85;5.15;;;;;;;4.58;82.53;101833.78;7393673;19;20017;-63
2022/01/06 11:06:22;;;;;;;11.02;4.13;;;;;;;4.64;83.15;101847.63;7391933;19;20437;-64
2022/01/06 11:08:51;;;;;;;11.77;4.28;;;;;;;4.70;83.26;101843.25;7394130;19;20017;-64
2022/01/06 11:14:02;;;;;;;12.93;4.65;;;;;;;4.77;82.36;101853.66;7393600;19;20018;-64
2022/01/06 11:16:31;;;;;;;16.90;4.85;;;;;;;4.79;82.47;101851.88;7390483;19;20077;-64
2022/01/06 11:19:01;;;;;;;9.93;3.60;;;;;;;4.82;82.65;101845.81;7392734;19;20013;-66
2022/01/06 11:21:39;;;;;;;11.57;4.00;;;;;;;4.88;83.18;101856.19;7392359;19;20010;-64
2022/01/06 11:24:15;;;;;;;12.57;3.90;;;;;;;4.93;82.67;101848.38;7392910;19;20022;-64
2022/01/06 11:26:45;;;;;;;21.25;5.13;;;;;;;4.96;81.25;101845.78;7389111;19;20523;-65
2022/01/06 11:29:15;;;;;;;20.10;4.63;;;;;;;5.00;81.11;101843.16;7391383;19;20369;-65
2022/01/06 11:31:45;;;;;;;13.02;4.35;;;;;;;5.06;81.53;101839.66;7391874;19;20082;-63
2022/01/06 11:34:17;;;;;;;13.80;4.32;;;;;;;5.13;81.81;101833.56;7393189;19;20011;-64
2022/01/06 11:36:52;;;;;;;14.18;4.30;;;;;;;5.20;81.84;101836.97;7390743;19;20011;-63
2022/01/06 11:39:30;;;;;;;10.13;4.05;;;;;;;5.23;81.87;101833.50;7390924;19;20025;-63
2022/01/06 11:42:01;;;;;;;11.25;4.60;;;;;;;5.29;81.27;101831.75;7390229;19;20014;-64